Time;durP1;ratioP1;P1;durP2;ratioP2;P2;SDS_P1;SDS_P2;PMS_P1;PMS_P2;Temp;Humidity;BMP_temperature;BMP_pressure;BME280_temperature;BME280_humidity;BME280_pressure;Samples;Min_cycle;Max_cycle;Signal;HPM_P1;HPM_P2
2023/07/09 00:02:00;;;;;;;3.40;2.23;;;23.80;69.50;;;;;;4929258;29;20492;-82
2023/07/09 00:04:29;;;;;;;6.35;3.22;;;23.80;69.70;;;;;;4885811;29;20044;-82
2023/07/09 00:07:01;;;;;;;3.80;2.10;;;23.70;70.30;;;;;;4933218;29;20040;-83
2023/07/09 00:09:29;;;;;;;5.43;2.33;;;23.70;69.80;;;;;;4920011;29;20116;-82
2023/07/09 00:11:57;;;;;;;4.05;2.30;;;23.70;69.80;;;;;;4919508;29;20075;-82
2023/07/09 00:14:24;;;;;;;5.63;2.20;;;23.70;70.00;;;;;;4909791;29;20079;-82
2023/07/09 00:16:52;;;;;;;3.88;2.10;;;23.70;70.00;;;;;;4924177;29;20044;-82
2023/07/09 00:19:24;;;;;;;4.95;2.20;;;23.70;70.10;;;;;;4924094;29;20480;-82
2023/07/09 00:21:54;;;;;;;3.40;1.95;;;23.60;70.30;;;;;;4922514;29;20058;-82
2023/07/09 00:24:22;;;;;;;3.50;1.92;;;23.60;70.40;;;;;;4910844;29;20123;-82
2023/07/09 00:26:49;;;;;;;3.67;2.00;;;23.60;70.50;;;;;;4918894;29;20067;-82
2023/07/09 00:29:17;;;;;;;4.00;2.25;;;23.50;70.60;;;;;;4912236;29;20492;-82
2023/07/09 00:31:45;;;;;;;3.47;2.05;;;23.50;70.70;;;;;;4917299;29;20040;-82
2023/07/09 00:34:17;;;;;;;4.72;1.90;;;23.50;70.80;;;;;;4910360;29;20064;-83
2023/07/09 00:36:45;;;;;;;3.85;1.90;;;23.50;70.90;;;;;;4922473;29;20044;-83
2023/07/09 00:39:22;;;;;;;3.58;2.10;;;23.50;71.00;;;;;;4931659;29;20407;-83
2023/07/09 00:41:50;;;;;;;4.82;2.30;;;23.50;71.10;;;;;;4926646;29;20512;-83
2023/07/09 00:44:30;;;;;;;3.55;1.63;;;23.40;71.20;;;;;;4905978;29;20056;-83
2023/07/09 00:47:01;;;;;;;5.07;2.30;;;23.40;71.30;;;;;;4913238;29;20086;-83
2023/07/09 00:49:35;;;;;;;3.72;2.03;;;23.40;71.40;;;;;;4936751;29;20161;-83
2023/07/09 00:52:20;;;;;;;4.32;1.83;;;23.40;71.50;;;;;;4913605;29;20086;-82
2023/07/09 00:54:50;;;;;;;3.72;1.83;;;23.40;71.50;;;;;;4935590;29;20118;-83
2023/07/09 00:57:22;;;;;;;4.05;2.28;;;23.30;71.60;;;;;;4909986;29;20518;-83
2023/07/09 00:59:55;;;;;;;2.80;2.03;;;23.30;71.80;;;;;;4909640;29;20405;-83
2023/07/09 01:02:23;;;;;;;5.05;2.10;;;23.20;71.80;;;;;;4919459;29;20095;-82
2023/07/09 01:04:59;;;;;;;4.43;2.03;;;23.20;71.90;;;;;;4907177;29;20055;-82
2023/07/09 01:07:30;;;;;;;3.28;1.90;;;23.20;72.00;;;;;;4925483;29;20047;-83
2023/07/09 01:09:57;;;;;;;3.60;2.10;;;23.20;72.00;;;;;;4905686;29;20044;-83
2023/07/09 01:12:25;;;;;;;3.72;1.90;;;23.20;72.10;;;;;;4905123;29;20052;-83
2023/07/09 01:14:58;;;;;;;3.38;1.90;;;23.20;72.20;;;;;;4901493;29;20447;-83
2023/07/09 01:17:27;;;;;;;3.95;1.95;;;23.20;72.30;;;;;;4908223;29;20131;-82
2023/07/09 01:19:56;;;;;;;4.25;2.05;;;23.20;72.50;;;;;;4929776;29;20465;-82
2023/07/09 01:22:23;;;;;;;3.92;2.10;;;23.10;72.50;;;;;;4919177;29;20051;-82
2023/07/09 01:25:02;;;;;;;3.92;1.85;;;23.10;72.60;;;;;;4903077;29;20410;-82
2023/07/09 01:27:29;;;;;;;3.72;2.00;;;23.10;72.70;;;;;;4916801;29;20056;-82
2023/07/09 01:29:57;;;;;;;3.30;1.90;;;23.10;72.80;;;;;;4934460;29;20411;-83
2023/07/09 01:32:24;;;;;;;3.45;1.80;;;23.00;73.00;;;;;;4893136;29;20035;-83
2023/07/09 01:34:55;;;;;;;4.47;2.40;;;23.00;73.10;;;;;;4915091;29;20143;-83
2023/07/09 01:37:26;;;;;;;4.15;2.22;;;23.00;73.30;;;;;;4903005;29;20496;-83
2023/07/09 01:39:54;;;;;;;3.90;2.25;;;23.00;73.40;;;;;;4922597;29;20051;-83
2023/07/09 01:42:24;;;;;;;4.45;2.22;;;22.90;73.50;;;;;;4900424;29;20055;-83
2023/07/09 01:44:53;;;;;;;3.42;2.13;;;22.90;73.60;;;;;;4909229;29;20064;-83
2023/07/09 01:47:23;;;;;;;5.32;2.88;;;22.80;73.70;;;;;;4922768;29;20047;-83
2023/07/09 01:49:56;;;;;;;4.53;2.30;;;22.80;73.80;;;;;;4899046;29;20054;-83
2023/07/09 01:52:28;;;;;;;4.30;2.47;;;22.80;73.90;;;;;;4903896;29;20197;-83
2023/07/09 01:54:55;;;;;;;3.60;1.90;;;22.80;74.00;;;;;;4934463;29;20138;-83
2023/07/09 01:57:24;;;;;;;3.58;1.90;;;22.80;74.10;;;;;;4912675;29;20059;-82
2023/07/09 01:59:57;;;;;;;3.70;1.75;;;22.80;74.20;;;;;;4914089;29;20051;-83
2023/07/09 02:02:25;;;;;;;3.58;2.05;;;22.70;74.30;;;;;;4903767;29;20059;-83
2023/07/09 02:04:54;;;;;;;3.70;2.20;;;22.70;74.40;;;;;;4917703;29;20047;-83
2023/07/09 02:07:23;;;;;;;4.18;2.53;;;22.60;74.40;;;;;;4918770;29;20111;-82
2023/07/09 02:09:51;;;;;;;4.85;2.65;;;22.60;74.70;;;;;;4910299;29;20052;-82
2023/07/09 02:12:19;;;;;;;3.63;2.42;;;22.50;74.80;;;;;;4917740;29;20058;-82
2023/07/09 02:14:49;;;;;;;5.25;2.83;;;22.50;74.90;;;;;;4936391;29;20462;-83
2023/07/09 02:17:19;;;;;;;3.92;2.28;;;22.50;75.00;;;;;;4882305;29;20523;-82
2023/07/09 02:19:46;;;;;;;3.95;1.77;;;22.40;75.10;;;;;;4924004;29;20056;-82
2023/07/09 02:22:13;;;;;;;4.20;2.47;;;22.40;75.20;;;;;;4913967;29;20138;-83
2023/07/09 02:24:40;;;;;;;5.43;2.33;;;22.40;75.30;;;;;;4940579;29;20047;-82
2023/07/09 02:27:10;;;;;;;3.58;2.30;;;22.30;75.40;;;;;;4907899;29;20519;-83
2023/07/09 02:29:38;;;;;;;3.53;2.25;;;22.30;75.50;;;;;;4902301;29;20130;-83
2023/07/09 02:32:05;;;;;;;3.95;2.30;;;22.30;75.60;;;;;;4912277;29;20050;-82
2023/07/09 02:34:35;;;;;;;3.45;1.98;;;22.30;75.70;;;;;;4913547;29;20047;-83
2023/07/09 02:37:02;;;;;;;4.30;2.30;;;22.30;75.90;;;;;;4908000;29;20416;-82
2023/07/09 02:39:31;;;;;;;3.15;1.90;;;22.20;75.90;;;;;;4918208;29;20103;-83
2023/07/09 02:41:59;;;;;;;4.22;2.03;;;22.20;76.00;;;;;;4896746;29;20095;-82
2023/07/09 02:44:26;;;;;;;3.90;2.30;;;22.20;76.70;;;;;;4905503;29;20047;-82
2023/07/09 02:46:54;;;;;;;3.83;2.03;;;22.10;76.10;;;;;;4890480;29;20044;-82
2023/07/09 02:49:22;;;;;;;3.78;2.22;;;22.20;76.30;;;;;;4911767;29;20110;-82
2023/07/09 02:51:49;;;;;;;5.15;2.17;;;22.10;76.30;;;;;;4911090;29;20075;-83
2023/07/09 02:54:16;;;;;;;3.95;2.00;;;22.10;76.40;;;;;;4890314;29;20048;-82
2023/07/09 02:56:43;;;;;;;4.18;2.30;;;22.00;76.50;;;;;;4900637;29;20496;-83
2023/07/09 02:59:11;;;;;;;4.63;2.22;;;22.00;76.60;;;;;;4916013;29;20047;-82
2023/07/09 03:01:39;;;;;;;3.72;1.83;;;22.00;76.70;;;;;;4917647;29;20460;-83
2023/07/09 03:04:08;;;;;;;5.07;2.13;;;22.00;76.80;;;;;;4916159;29;20419;-83
2023/07/09 03:06:36;;;;;;;4.60;2.42;;;22.00;76.90;;;;;;4918622;29;20101;-83
2023/07/09 03:09:04;;;;;;;4.25;2.22;;;21.90;77.00;;;;;;4928781;29;20048;-82
2023/07/09 03:11:33;;;;;;;3.80;2.30;;;21.90;77.10;;;;;;4912904;29;20047;-83
2023/07/09 03:14:01;;;;;;;3.70;2.05;;;21.90;77.10;;;;;;4902249;29;20087;-83
2023/07/09 03:16:30;;;;;;;5.07;2.53;;;21.80;77.20;;;;;;4908429;29;20568;-83
2023/07/09 03:18:58;;;;;;;3.05;1.63;;;21.90;77.30;;;;;;4935458;29;20142;-82
2023/07/09 03:21:27;;;;;;;4.18;1.83;;;21.80;77.30;;;;;;4934450;29;20143;-83
2023/07/09 03:23:55;;;;;;;4.10;2.05;;;21.80;77.40;;;;;;4903093;29;20043;-84
2023/07/09 03:26:22;;;;;;;3.10;1.70;;;21.80;77.50;;;;;;4894328;29;20043;-82
2023/07/09 03:28:49;;;;;;;5.88;1.92;;;21.80;77.50;;;;;;4909831;29;20055;-86
2023/07/09 03:31:16;;;;;;;3.00;1.35;;;21.70;77.50;;;;;;4926945;29;20039;-85
2023/07/09 03:33:45;;;;;;;3.80;1.60;;;21.80;77.60;;;;;;4908219;29;20099;-86
2023/07/09 03:36:19;;;;;;;5.07;2.30;;;21.70;77.70;;;;;;4922195;29;20058;-86
2023/07/09 03:38:47;;;;;;;4.38;2.17;;;21.70;77.80;;;;;;4890457;29;20064;-85
2023/07/09 03:41:14;;;;;;;3.85;2.05;;;21.70;77.90;;;;;;4932780;29;20058;-86
2023/07/09 03:43:44;;;;;;;2.97;1.52;;;21.70;78.00;;;;;;4916193;29;20047;-86
2023/07/09 03:46:11;;;;;;;3.28;1.67;;;21.70;78.00;;;;;;4893144;29;20051;-86
2023/07/09 03:48:38;;;;;;;2.70;1.60;;;21.70;78.10;;;;;;4912848;29;20062;-86
2023/07/09 03:51:05;;;;;;;3.72;2.13;;;21.70;78.10;;;;;;4906951;29;20073;-86
2023/07/09 03:53:33;;;;;;;3.22;1.90;;;21.70;78.10;;;;;;4905565;29;20390;-86
2023/07/09 03:56:00;;;;;;;4.03;1.95;;;21.70;78.20;;;;;;4905531;29;20058;-86
2023/07/09 03:58:28;;;;;;;4.20;2.35;;;21.70;78.30;;;;;;4890248;29;20416;-86
2023/07/09 04:00:55;;;;;;;5.53;2.40;;;21.70;78.30;;;;;;4917220;29;20048;-86
2023/07/09 04:03:23;;;;;;;3.60;1.90;;;21.70;78.40;;;;;;4909200;29;20044;-86
2023/07/09 04:05:52;;;;;;;4.28;2.28;;;21.70;78.40;;;;;;4925395;29;20063;-85
2023/07/09 04:08:20;;;;;;;3.63;2.28;;;21.70;78.40;;;;;;4893161;29;20114;-86
2023/07/09 04:10:47;;;;;;;7.22;2.40;;;21.80;78.50;;;;;;4911752;29;20413;-86
2023/07/09 04:13:14;;;;;;;4.93;2.53;;;21.80;78.50;;;;;;4909793;29;20048;-86
2023/07/09 04:15:41;;;;;;;4.68;2.90;;;21.80;78.40;;;;;;4892367;29;20472;-85
2023/07/09 04:18:08;;;;;;;4.30;2.67;;;21.90;78.40;;;;;;4889674;29;20071;-86
2023/07/09 04:20:35;;;;;;;3.33;1.98;;;21.90;78.40;;;;;;4920883;29;20118;-86
2023/07/09 04:23:02;;;;;;;3.58;2.03;;;21.90;78.40;;;;;;4890061;29;20083;-86
2023/07/09 04:25:29;;;;;;;4.60;2.33;;;21.90;78.30;;;;;;4905159;29;20055;-86
2023/07/09 04:27:57;;;;;;;3.42;1.88;;;21.90;78.30;;;;;;4904952;29;20059;-85
2023/07/09 04:30:24;;;;;;;4.57;2.55;;;22.00;78.30;;;;;;4917863;29;20062;-86
2023/07/09 04:32:51;;;;;;;3.45;1.77;;;22.00;78.30;;;;;;4889350;29;20062;-86
2023/07/09 04:35:18;;;;;;;3.08;1.73;;;22.00;78.20;;;;;;4932135;29;20047;-85
2023/07/09 04:37:45;;;;;;;3.85;2.20;;;22.00;78.30;;;;;;4914557;29;20075;-86
2023/07/09 04:40:13;;;;;;;5.43;2.63;;;22.00;78.40;;;;;;4929240;29;20044;-86
2023/07/09 04:42:41;;;;;;;4.32;2.72;;;22.00;78.40;;;;;;4907258;29;20052;-86
2023/07/09 04:45:10;;;;;;;3.60;2.08;;;22.10;78.60;;;;;;4873374;29;20058;-86
2023/07/09 04:47:39;;;;;;;3.30;2.03;;;22.10;78.60;;;;;;4930534;29;20040;-86
2023/07/09 04:50:07;;;;;;;4.93;2.58;;;22.10;78.60;;;;;;4913815;29;20110;-86
2023/07/09 04:52:35;;;;;;;2.90;1.80;;;22.20;78.70;;;;;;4923737;29;20100;-86
2023/07/09 04:55:02;;;;;;;4.03;2.15;;;22.20;78.60;;;;;;4919908;29;20040;-86
2023/07/09 04:57:30;;;;;;;4.75;2.40;;;22.20;78.60;;;;;;4922463;29;20046;-86
2023/07/09 04:59:57;;;;;;;4.18;2.05;;;22.20;78.60;;;;;;4916339;29;20051;-86
2023/07/09 05:02:24;;;;;;;4.45;2.40;;;22.30;78.70;;;;;;4905892;29;20047;-86
2023/07/09 05:04:52;;;;;;;4.07;2.47;;;22.30;78.70;;;;;;4901108;29;20051;-86
2023/07/09 05:07:19;;;;;;;3.92;1.98;;;22.40;78.70;;;;;;4913275;29;20094;-86
2023/07/09 05:09:47;;;;;;;4.38;2.53;;;22.40;78.70;;;;;;4904487;29;20138;-86
2023/07/09 05:12:14;;;;;;;4.90;2.95;;;22.50;78.70;;;;;;4904494;29;20544;-86
2023/07/09 05:14:43;;;;;;;3.72;2.42;;;22.50;78.50;;;;;;4904020;29;20052;-86
2023/07/09 05:17:10;;;;;;;3.65;2.40;;;22.60;78.40;;;;;;4929355;29;20043;-86
2023/07/09 05:19:38;;;;;;;4.30;2.53;;;22.70;78.40;;;;;;4900630;29;20058;-86
2023/07/09 05:22:05;;;;;;;4.78;2.90;;;22.80;78.30;;;;;;4908886;29;20059;-86
2023/07/09 05:24:32;;;;;;;4.88;2.63;;;22.80;78.20;;;;;;4908666;29;20051;-86
2023/07/09 05:27:00;;;;;;;4.45;2.33;;;22.90;78.10;;;;;;4912390;29;20147;-86
2023/07/09 05:29:27;;;;;;;4.15;2.50;;;23.00;78.60;;;;;;4912336;29;20048;-86
2023/07/09 05:31:54;;;;;;;4.47;2.45;;;23.10;77.80;;;;;;4892232;29;20142;-85
2023/07/09 05:34:22;;;;;;;4.85;2.85;;;23.20;77.70;;;;;;4911736;29;20043;-83
2023/07/09 05:36:49;;;;;;;5.65;2.88;;;23.30;77.40;;;;;;4916270;29;20055;-83
2023/07/09 05:39:16;;;;;;;4.30;2.45;;;23.30;77.20;;;;;;4894108;29;20071;-85
2023/07/09 05:41:43;;;;;;;5.25;2.50;;;23.50;77.00;;;;;;4910894;29;20657;-86
2023/07/09 05:44:11;;;;;;;5.18;3.15;;;23.60;76.70;;;;;;4919518;29;20047;-85
2023/07/09 05:46:41;;;;;;;5.85;3.45;;;23.70;76.50;;;;;;4912882;29;20075;-85
2023/07/09 05:49:08;;;;;;;4.72;2.65;;;23.80;76.20;;;;;;4919050;29;20493;-86
2023/07/09 05:51:38;;;;;;;4.57;2.63;;;23.90;75.90;;;;;;4910371;29;20048;-85
2023/07/09 05:54:05;;;;;;;3.33;2.38;;;24.00;75.70;;;;;;4906642;29;20051;-82
2023/07/09 05:56:32;;;;;;;5.00;3.08;;;24.10;75.50;;;;;;4913486;29;20514;-82
2023/07/09 05:59:04;;;;;;;5.07;3.20;;;24.20;75.20;;;;;;4874055;29;20304;-83
2023/07/09 06:01:32;;;;;;;5.32;2.85;;;24.30;75.10;;;;;;4904692;29;20048;-82
2023/07/09 06:03:59;;;;;;;4.25;2.50;;;24.40;74.90;;;;;;4899790;29;20048;-82
2023/07/09 06:06:27;;;;;;;4.68;2.72;;;24.40;74.80;;;;;;4884648;29;20150;-82
2023/07/09 06:08:54;;;;;;;5.75;3.15;;;24.50;74.50;;;;;;4866665;29;20051;-82
2023/07/09 06:11:21;;;;;;;5.30;2.78;;;24.60;74.20;;;;;;4895475;29;20049;-82
2023/07/09 06:13:52;;;;;;;3.45;2.00;;;24.80;74.00;;;;;;4934468;29;20063;-82
2023/07/09 06:16:20;;;;;;;4.60;2.50;;;24.90;73.70;;;;;;4882931;29;20070;-82
2023/07/09 06:18:47;;;;;;;4.40;2.85;;;25.00;73.40;;;;;;4918271;29;20072;-82
2023/07/09 06:21:14;;;;;;;4.68;3.00;;;25.10;73.20;;;;;;4873010;29;20052;-82
2023/07/09 06:23:41;;;;;;;5.25;3.08;;;25.20;72.90;;;;;;4862154;29;20080;-82
2023/07/09 06:26:08;;;;;;;4.95;3.00;;;25.30;72.90;;;;;;4866569;29;20096;-82
2023/07/09 06:28:35;;;;;;;4.70;2.80;;;25.30;72.80;;;;;;4850728;29;20096;-82
2023/07/09 06:31:02;;;;;;;4.95;3.10;;;25.40;72.70;;;;;;4868613;29;20044;-82
2023/07/09 06:33:30;;;;;;;4.07;2.70;;;25.50;72.60;;;;;;4884461;29;20052;-82
2023/07/09 06:35:59;;;;;;;4.22;2.58;;;25.60;72.50;;;;;;4908516;29;20047;-82
2023/07/09 06:38:28;;;;;;;4.30;2.80;;;25.70;72.30;;;;;;4906365;29;20051;-82
2023/07/09 06:40:56;;;;;;;4.50;2.45;;;25.80;72.10;;;;;;4883897;29;20051;-82
2023/07/09 06:43:23;;;;;;;3.05;2.08;;;25.90;71.90;;;;;;4905930;29;20048;-83
2023/07/09 06:45:55;;;;;;;4.45;2.58;;;26.00;71.70;;;;;;4901389;29;20127;-82
2023/07/09 06:48:24;;;;;;;4.20;2.83;;;26.10;71.50;;;;;;4875844;29;20056;-83
2023/07/09 06:50:53;;;;;;;4.30;2.60;;;26.20;71.40;;;;;;4902167;29;20134;-83
2023/07/09 06:53:21;;;;;;;5.07;2.75;;;26.20;71.10;;;;;;4900725;29;20052;-83
2023/07/09 06:55:48;;;;;;;3.72;2.30;;;26.30;71.00;;;;;;4916582;29;20048;-83
2023/07/09 06:58:19;;;;;;;3.95;2.33;;;26.40;70.80;;;;;;4876830;29;20566;-83
2023/07/09 07:00:49;;;;;;;4.43;2.85;;;26.50;70.60;;;;;;4892854;29;20047;-83
2023/07/09 07:03:16;;;;;;;5.32;2.65;;;26.60;70.50;;;;;;4887995;29;20047;-82
2023/07/09 07:05:55;;;;;;;3.38;2.20;;;26.70;70.40;;;;;;4871821;29;20083;-82
2023/07/09 07:08:24;;;;;;;5.25;3.17;;;26.80;70.90;;;;;;4922391;29;20504;-84
2023/07/09 07:11:03;;;;;;;5.60;3.00;;;26.80;70.10;;;;;;4909347;29;20513;-86
2023/07/09 07:13:34;;;;;;;4.38;2.35;;;26.90;70.00;;;;;;4900157;29;20052;-87
2023/07/09 07:16:04;;;;;;;4.93;2.80;;;27.00;69.90;;;;;;4919947;29;20051;-91
2023/07/09 07:18:32;;;;;;;3.97;2.20;;;27.10;69.80;;;;;;4902385;29;20130;-92
2023/07/09 07:20:59;;;;;;;5.95;2.72;;;27.20;69.60;;;;;;4898897;29;20587;-88
2023/07/09 07:23:30;;;;;;;5.38;2.80;;;27.30;69.50;;;;;;4916890;29;20078;-88
2023/07/09 07:25:57;;;;;;;3.58;2.10;;;27.40;69.30;;;;;;4901133;29;20052;-88
2023/07/09 07:28:24;;;;;;;3.90;2.53;;;27.50;69.10;;;;;;4898388;29;20058;-83
2023/07/09 07:31:03;;;;;;;4.18;2.70;;;27.60;69.00;;;;;;4923191;29;20079;-91
2023/07/09 07:33:30;;;;;;;5.30;3.28;;;27.70;68.70;;;;;;4926415;29;20110;-90
2023/07/09 07:35:58;;;;;;;4.43;2.70;;;27.80;68.60;;;;;;4925594;29;20137;-87
2023/07/09 07:38:28;;;;;;;4.80;3.05;;;27.80;68.50;;;;;;4933771;29;20076;-93
2023/07/09 07:40:55;;;;;;;5.82;2.85;;;27.90;68.30;;;;;;4915673;29;20103;-87
2023/07/09 07:43:22;;;;;;;4.55;2.92;;;28.00;68.20;;;;;;4929158;29;20055;-88
2023/07/09 07:45:49;;;;;;;4.78;2.72;;;28.00;68.10;;;;;;4927997;29;20052;-93
2023/07/09 07:48:17;;;;;;;3.67;2.60;;;28.10;67.90;;;;;;4907834;29;20198;-87
2023/07/09 07:50:46;;;;;;;4.90;2.83;;;28.20;67.70;;;;;;4888708;29;20136;-93
2023/07/09 07:53:15;;;;;;;5.15;3.08;;;28.40;67.50;;;;;;4887403;29;20052;-87
2023/07/09 07:55:43;;;;;;;3.92;2.88;;;28.40;67.30;;;;;;4902730;29;20064;-93
2023/07/09 07:58:12;;;;;;;4.80;2.85;;;28.40;67.10;;;;;;4869544;29;20044;-87
2023/07/09 08:00:40;;;;;;;5.25;2.60;;;28.50;67.10;;;;;;4914002;29;20047;-84
2023/07/09 08:03:07;;;;;;;4.63;2.28;;;28.60;66.90;;;;;;4905633;29;20047;-84
2023/07/09 08:05:35;;;;;;;4.40;2.35;;;28.80;66.70;;;;;;4911331;29;20079;-84
2023/07/09 08:08:02;;;;;;;5.78;2.63;;;28.90;66.60;;;;;;4889726;29;20087;-84
2023/07/09 08:10:37;;;;;;;3.90;2.25;;;29.00;66.40;;;;;;4911224;29;20052;-91
2023/07/09 08:13:13;;;;;;;4.13;2.25;;;29.10;66.20;;;;;;4888441;29;20044;-91
2023/07/09 08:15:42;;;;;;;4.82;2.53;;;29.20;66.10;;;;;;4884335;29;20100;-92
2023/07/09 08:18:09;;;;;;;4.53;2.22;;;29.30;65.90;;;;;;4894273;29;20044;-89
2023/07/09 08:20:45;;;;;;;4.22;2.38;;;29.40;65.70;;;;;;4904820;29;20044;-94
2023/07/09 08:23:12;;;;;;;3.90;2.40;;;29.40;65.50;;;;;;4887641;29;20151;-89
2023/07/09 08:25:40;;;;;;;3.63;2.10;;;29.50;65.30;;;;;;4863017;29;20052;-89
2023/07/09 08:28:07;;;;;;;3.78;2.33;;;29.60;65.20;;;;;;4883958;29;20057;-95
2023/07/09 08:30:36;;;;;;;3.80;1.98;;;29.70;64.90;;;;;;4906130;29;20079;-94
2023/07/09 08:33:10;;;;;;;3.63;2.30;;;29.80;64.80;;;;;;4921672;29;20158;-94
2023/07/09 08:35:37;;;;;;;3.70;2.03;;;29.90;64.50;;;;;;4920944;29;20090;-88
2023/07/09 08:38:05;;;;;;;5.22;2.78;;;30.10;64.40;;;;;;4903126;29;20059;-94
2023/07/09 08:40:33;;;;;;;3.92;2.33;;;30.10;64.20;;;;;;4856382;29;20139;-88
2023/07/09 08:43:11;;;;;;;3.05;1.88;;;30.20;64.10;;;;;;4875272;29;20069;-88
2023/07/09 08:45:47;;;;;;;5.00;2.13;;;30.40;63.80;;;;;;4885312;29;20072;-91
2023/07/09 08:48:25;;;;;;;3.83;2.17;;;30.40;63.40;;;;;;4920681;29;20058;-91
2023/07/09 08:51:00;;;;;;;2.53;1.65;;;30.60;63.30;;;;;;4918341;29;20048;-87
2023/07/09 08:54:00;;;;;;;2.92;1.88;;;30.70;63.10;;;;;;4911166;29;20165;-92
2023/07/09 08:56:32;;;;;;;4.10;1.90;;;30.80;62.70;;;;;;4891984;29;20108;-88
2023/07/09 08:59:26;;;;;;;3.60;1.92;;;30.90;62.60;;;;;;4902061;29;20055;-91
2023/07/09 09:01:59;;;;;;;3.67;2.03;;;31.00;62.40;;;;;;4908597;29;20044;-92
2023/07/09 09:04:28;;;;;;;3.65;2.22;;;31.10;62.20;;;;;;4901745;29;20066;-89
2023/07/09 09:07:34;;;;;;;3.85;2.15;;;31.20;62.20;;;;;;4904212;29;20564;-88
2023/07/09 09:10:19;;;;;;;4.78;2.05;;;31.20;62.10;;;;;;4806322;29;20054;-88
2023/07/09 09:13:06;;;;;;;3.17;2.08;;;31.30;62.00;;;;;;4908978;29;20059;-89
2023/07/09 09:15:34;;;;;;;3.95;2.10;;;31.40;61.90;;;;;;4887366;29;20344;-94
2023/07/09 09:18:20;;;;;;;3.80;1.60;;;31.40;61.70;;;;;;4887065;29;20048;-93
2023/07/09 09:20:56;;;;;;;3.53;1.95;;;31.50;61.30;;;;;;4886345;29;20052;-89
2023/07/09 09:23:46;;;;;;;3.20;2.20;;;31.60;61.20;;;;;;4902513;29;20052;-93
2023/07/09 09:26:21;;;;;;;3.80;1.63;;;31.80;60.90;;;;;;4886526;29;20087;-94
2023/07/09 09:28:48;;;;;;;3.60;1.92;;;31.80;60.80;;;;;;4898033;29;20056;-91
2023/07/09 09:31:21;;;;;;;4.90;2.38;;;31.90;60.30;;;;;;4885574;29;20052;-89
2023/07/09 09:33:49;;;;;;;2.92;1.73;;;32.00;60.70;;;;;;4887428;29;20042;-91
2023/07/09 09:36:24;;;;;;;3.03;1.73;;;32.00;59.80;;;;;;4905146;29;20056;-92
2023/07/09 09:38:52;;;;;;;4.28;1.67;;;32.20;59.60;;;;;;4914508;29;20052;-89
2023/07/09 09:41:26;;;;;;;2.97;1.65;;;32.30;59.40;;;;;;4885843;29;20394;-90
2023/07/09 09:43:54;;;;;;;3.40;2.08;;;32.40;59.20;;;;;;4886126;29;20056;-86
2023/07/09 09:46:27;;;;;;;5.93;2.28;;;32.40;59.10;;;;;;4892082;29;20181;-86
2023/07/09 09:48:56;;;;;;;3.40;1.75;;;32.50;59.00;;;;;;4869068;29;20052;-85
2023/07/09 09:51:24;;;;;;;3.45;1.85;;;32.50;58.90;;;;;;4902219;29;20076;-85
2023/07/09 09:53:58;;;;;;;2.67;1.50;;;32.60;58.70;;;;;;4912866;29;20040;-85
2023/07/09 09:56:36;;;;;;;3.38;1.73;;;32.70;58.60;;;;;;4895628;29;20404;-85
2023/07/09 09:59:05;;;;;;;3.00;1.67;;;32.80;58.40;;;;;;4904906;29;20139;-92
2023/07/09 10:01:35;;;;;;;3.08;1.77;;;32.80;58.10;;;;;;4902648;29;20066;-92
2023/07/09 10:04:05;;;;;;;3.42;2.00;;;32.90;57.90;;;;;;4887180;29;20131;-96
2023/07/09 10:06:40;;;;;;;2.78;1.45;;;33.00;57.60;;;;;;4886691;29;20052;-94
2023/07/09 10:09:34;;;;;;;3.97;1.70;;;33.10;57.40;;;;;;4891544;29;20052;-96
2023/07/09 10:12:34;;;;;;;2.95;1.55;;;33.10;57.10;;;;;;4890870;29;20051;-96
2023/07/09 10:15:34;;;;;;;2.67;1.63;;;33.30;56.90;;;;;;4887829;29;20048;-96
2023/07/09 10:18:25;;;;;;;3.40;2.22;;;33.30;56.20;;;;;;4902037;29;20050;-96
2023/07/09 10:21:10;;;;;;;3.28;2.03;;;33.20;55.70;;;;;;4887435;29;20123;-88
2023/07/09 10:23:48;;;;;;;3.25;1.90;;;33.20;55.60;;;;;;4883497;29;20108;-95
2023/07/09 10:26:44;;;;;;;3.63;2.35;;;33.30;55.60;;;;;;4877882;29;20138;-95
2023/07/09 10:29:30;;;;;;;4.30;2.40;;;33.40;55.10;;;;;;4897008;29;20055;-95
2023/07/09 10:32:24;;;;;;;3.33;1.73;;;33.50;55.10;;;;;;4885889;29;20075;-95
2023/07/09 10:35:12;;;;;;;2.72;1.70;;;33.60;54.80;;;;;;4896412;29;20122;-89
2023/07/09 10:37:42;;;;;;;4.28;1.75;;;33.70;54.60;;;;;;4923882;29;20079;-95
2023/07/09 10:40:17;;;;;;;3.13;1.42;;;33.70;54.50;;;;;;4908705;29;20075;-95
2023/07/09 10:42:50;;;;;;;2.33;1.45;;;33.80;54.30;;;;;;4905974;29;20128;-93
2023/07/09 10:45:46;;;;;;;2.40;1.40;;;33.90;54.10;;;;;;4889590;29;20054;-94
2023/07/09 10:48:41;;;;;;;2.90;1.30;;;34.00;53.70;;;;;;4889921;29;20084;-94
2023/07/09 10:51:31;;;;;;;2.20;1.23;;;34.10;53.50;;;;;;4888382;29;20421;-84
2023/07/09 10:54:05;;;;;;;3.13;1.20;;;34.20;53.30;;;;;;4884531;29;20059;-84
2023/07/09 10:56:35;;;;;;;2.58;1.30;;;34.20;53.10;;;;;;4899042;29;20075;-84
2023/07/09 10:59:29;;;;;;;2.45;1.35;;;34.30;52.80;;;;;;4903650;29;20040;-95
2023/07/09 11:02:16;;;;;;;2.80;1.20;;;34.40;52.60;;;;;;4896390;29;20048;-94
2023/07/09 11:04:56;;;;;;;2.42;1.20;;;34.40;52.30;;;;;;4891160;29;20651;-85
2023/07/09 11:07:45;;;;;;;3.17;1.63;;;34.50;52.00;;;;;;4905640;29;20448;-86
2023/07/09 11:10:24;;;;;;;3.70;1.48;;;34.50;52.30;;;;;;4917134;29;20040;-84
2023/07/09 11:13:35;;;;;;;3.05;1.80;;;34.60;51.70;;;;;;4898851;29;20067;-87
2023/07/09 11:16:14;;;;;;;3.55;1.80;;;34.70;51.40;;;;;;4896527;29;20497;-84
2023/07/09 11:18:56;;;;;;;2.60;1.58;;;34.70;51.20;;;;;;4900520;29;20063;-84
2023/07/09 11:21:23;;;;;;;2.22;1.48;;;34.80;51.10;;;;;;4906367;29;20075;-84
2023/07/09 11:23:54;;;;;;;2.67;1.48;;;34.90;50.90;;;;;;4871262;29;20055;-85
2023/07/09 11:26:27;;;;;;;2.58;1.48;;;34.90;50.90;;;;;;4889070;29;20075;-84
2023/07/09 11:29:16;;;;;;;3.13;1.27;;;35.00;50.80;;;;;;4901659;29;20056;-84
2023/07/09 11:31:48;;;;;;;3.70;1.50;;;35.20;50.70;;;;;;4899804;29;20123;-83
2023/07/09 11:34:19;;;;;;;2.00;1.20;;;35.20;51.00;;;;;;4889909;29;20048;-84
2023/07/09 11:36:55;;;;;;;2.93;1.27;;;35.40;50.30;;;;;;4886551;29;20056;-83
2023/07/09 11:39:46;;;;;;;2.83;1.27;;;35.50;50.10;;;;;;4904948;29;20126;-82
2023/07/09 11:42:23;;;;;;;;;;;35.60;49.90;;;;;;4917908;29;20056;-83
2023/07/09 11:45:12;;;;;;;1.90;0.90;;;35.50;50.10;;;;;;4885845;29;19930;-83
2023/07/09 11:47:45;;;;;;;2.30;1.30;;;35.60;49.90;;;;;;4905458;29;20079;-86
2023/07/09 11:50:13;;;;;;;2.65;1.00;;;35.80;49.60;;;;;;4897056;29;20501;-86
2023/07/09 11:52:59;;;;;;;3.35;1.50;;;35.80;49.50;;;;;;4906203;29;20042;-83
2023/07/09 11:55:45;;;;;;;3.50;2.05;;;35.90;49.10;;;;;;4887415;29;20044;-84
2023/07/09 11:58:15;;;;;;;3.33;1.90;;;35.90;48.80;;;;;;4889861;29;20040;-84
2023/07/09 12:00:48;;;;;;;3.00;1.80;;;35.90;48.80;;;;;;4911432;29;20473;-83
2023/07/09 12:03:34;;;;;;;2.92;1.58;;;36.00;48.70;;;;;;4901665;29;20044;-83
2023/07/09 12:06:04;;;;;;;2.47;1.27;;;36.10;48.80;;;;;;4901414;29;20462;-84
2023/07/09 12:08:38;;;;;;;2.75;1.38;;;36.10;48.70;;;;;;4895327;29;20080;-82
2023/07/09 12:11:06;;;;;;;2.00;1.10;;;36.20;48.60;;;;;;4924345;29;20048;-83
2023/07/09 12:13:39;;;;;;;2.55;1.25;;;36.20;48.70;;;;;;4899909;29;20044;-81
2023/07/09 12:16:26;;;;;;;2.13;1.13;;;36.30;48.80;;;;;;4891482;29;20090;-82
2023/07/09 12:18:53;;;;;;;2.28;1.42;;;36.30;48.80;;;;;;4898584;29;20103;-82
2023/07/09 12:21:21;;;;;;;3.10;1.40;;;36.30;49.00;;;;;;4889598;29;20048;-87
2023/07/09 12:23:49;;;;;;;3.28;1.80;;;36.20;49.00;;;;;;4887334;29;20080;-90
2023/07/09 12:26:19;;;;;;;2.47;1.60;;;36.10;49.20;;;;;;4913865;29;20147;-89
2023/07/09 12:28:58;;;;;;;4.25;1.80;;;36.00;49.30;;;;;;4896609;29;20055;-81
2023/07/09 12:31:28;;;;;;;3.10;1.73;;;35.80;49.20;;;;;;4913875;29;20051;-82
2023/07/09 12:33:57;;;;;;;2.75;1.50;;;35.50;49.50;;;;;;4896896;29;20044;-81
2023/07/09 12:36:30;;;;;;;2.97;1.42;;;35.30;49.90;;;;;;4918326;29;20068;-89
2023/07/09 12:39:12;;;;;;;2.45;1.50;;;35.10;50.10;;;;;;4869921;29;20040;-89
2023/07/09 12:41:44;;;;;;;4.13;1.40;;;34.90;50.40;;;;;;4887393;29;20055;-91
2023/07/09 12:44:22;;;;;;;2.97;1.48;;;34.60;50.70;;;;;;4899409;29;20072;-86
2023/07/09 12:46:52;;;;;;;2.55;1.50;;;34.40;51.00;;;;;;4898996;29;20124;-87
2023/07/09 12:49:26;;;;;;;2.42;1.27;;;34.10;51.20;;;;;;4906464;29;20091;-85
2023/07/09 12:51:57;;;;;;;3.03;1.70;;;34.00;51.50;;;;;;4897366;29;20068;-86
2023/07/09 12:54:31;;;;;;;3.22;1.50;;;33.90;51.60;;;;;;4908547;29;20080;-89
2023/07/09 12:57:17;;;;;;;2.45;1.55;;;33.90;51.70;;;;;;4880626;29;20502;-86
2023/07/09 12:59:47;;;;;;;2.65;1.25;;;34.00;51.60;;;;;;4880019;29;20053;-88
2023/07/09 13:02:25;;;;;;;3.45;1.27;;;34.10;51.60;;;;;;4879684;29;20063;-90
2023/07/09 13:05:16;;;;;;;2.53;1.65;;;34.20;51.40;;;;;;4905555;29;20062;-88
2023/07/09 13:07:59;;;;;;;2.13;1.40;;;34.60;50.80;;;;;;4892480;29;20051;-85
2023/07/09 13:10:30;;;;;;;2.95;1.40;;;34.90;50.50;;;;;;4901182;29;20339;-88
2023/07/09 13:13:03;;;;;;;2.35;1.23;;;35.30;50.20;;;;;;4898006;29;20056;-91